createdAt,value
2023-04-03T00:01:16.374Z,66.09
2023-04-03T00:03:44.765Z,69.75
2023-04-03T00:06:13.965Z,67.02
2023-04-03T00:08:42.832Z,67.32
2023-04-03T00:11:12.708Z,63.40
2023-04-03T00:13:41.846Z,61.25
2023-04-03T00:16:10.762Z,63.36
2023-04-03T00:18:40.777Z,62.64
2023-04-03T00:21:10.450Z,65.07
2023-04-03T00:23:38.879Z,65.71
2023-04-03T00:26:07.241Z,66.98
2023-04-03T00:28:36.998Z,68.25
2023-04-03T00:31:05.961Z,71.10
2023-04-03T00:33:34.322Z,73.21
2023-04-03T00:36:08.265Z,73.88
2023-04-03T00:38:36.705Z,70.25
2023-04-03T00:41:05.146Z,70.29
2023-04-03T00:43:33.537Z,69.97
2023-04-03T00:46:03.584Z,70.72
2023-04-03T00:48:34.948Z,70.00
2023-04-03T00:51:04.764Z,71.68
2023-04-03T00:53:36.088Z,71.35
2023-04-03T00:56:07.587Z,68.50
2023-04-03T00:58:39.584Z,69.52
2023-04-03T01:01:14.183Z,71.52
2023-04-03T01:03:42.836Z,69.82
2023-04-03T01:06:11.305Z,68.29
2023-04-03T01:08:40.631Z,65.34
2023-04-03T01:11:08.879Z,66.96
2023-04-03T01:13:37.234Z,65.75
2023-04-03T01:16:07.075Z,65.33
2023-04-03T01:18:40.069Z,66.76
2023-04-03T01:21:58.961Z,69.64
2023-04-03T01:24:44.873Z,71.13
2023-04-03T01:27:14.239Z,70.09
2023-04-03T01:29:44.648Z,73.42
2023-04-03T01:32:14.579Z,68.36
2023-04-03T01:34:42.800Z,67.31
2023-04-03T01:37:11.118Z,66.28
2023-04-03T01:39:39.441Z,65.98
2023-04-03T01:42:07.882Z,69.26
2023-04-03T01:44:36.131Z,67.37
2023-04-03T01:47:07.321Z,68.44
2023-04-03T01:49:37.083Z,70.25
2023-04-03T01:52:21.377Z,69.07
2023-04-03T01:54:49.697Z,68.24
2023-04-03T01:57:18.098Z,68.90
2023-04-03T01:59:46.463Z,68.72
2023-04-03T02:02:15.795Z,68.22
2023-04-03T02:04:45.452Z,67.07
2023-04-03T02:07:14.043Z,65.89
2023-04-03T02:09:42.334Z,67.19
2023-04-03T02:12:10.951Z,66.96
2023-04-03T02:14:39.569Z,66.77
2023-04-03T02:17:09.796Z,68.30
2023-04-03T02:19:38.481Z,70.15
2023-04-03T02:22:08.307Z,72.98
2023-04-03T02:24:36.629Z,71.56
2023-04-03T02:27:04.975Z,70.35
2023-04-03T02:29:33.329Z,71.65
2023-04-03T02:32:01.690Z,73.03
2023-04-03T02:34:30.074Z,75.51
2023-04-03T02:36:58.490Z,77.77
2023-04-03T02:39:28.400Z,79.49
2023-04-03T02:41:56.752Z,74.00
2023-04-03T02:44:25.631Z,73.67
2023-04-03T02:46:53.891Z,73.43
2023-04-03T02:49:22.235Z,71.07
2023-04-03T02:51:50.603Z,71.35
2023-04-03T02:54:18.881Z,69.55
2023-04-03T02:56:48.634Z,69.99
2023-04-03T02:59:17.109Z,69.45
2023-04-03T03:01:45.407Z,70.99
2023-04-03T03:04:14.916Z,71.83
2023-04-03T03:06:44.811Z,70.72
2023-04-03T03:09:14.266Z,69.40
2023-04-03T03:11:42.596Z,69.96
2023-04-03T03:14:12.305Z,69.95
2023-04-03T03:16:40.643Z,69.80
2023-04-03T03:19:09.064Z,73.74
2023-04-03T03:21:37.439Z,79.63
2023-04-03T03:24:06.210Z,82.38
2023-04-03T03:26:34.526Z,77.35
2023-04-03T03:29:02.757Z,74.38
2023-04-03T03:31:32.508Z,77.64
2023-04-03T03:34:00.837Z,79.22
2023-04-03T03:36:29.224Z,75.98
2023-04-03T03:38:57.510Z,74.63
2023-04-03T03:41:25.796Z,75.13
2023-04-03T03:43:54.123Z,74.37
2023-04-03T03:46:22.411Z,75.61
2023-04-03T03:48:52.116Z,74.44
2023-04-03T03:51:20.545Z,77.43
2023-04-03T03:53:48.964Z,80.33
2023-04-03T03:56:17.314Z,83.98
2023-04-03T03:58:45.541Z,77.39
2023-04-03T04:01:13.984Z,74.09
2023-04-03T04:03:42.416Z,73.99
2023-04-03T04:06:12.197Z,75.24
2023-04-03T04:08:40.401Z,76.29
2023-04-03T04:11:08.794Z,78.10
2023-04-03T04:13:38.113Z,81.91
2023-04-03T04:16:07.007Z,76.51
2023-04-03T04:18:35.321Z,76.68
2023-04-03T04:21:03.690Z,74.50
2023-04-03T04:23:33.350Z,74.89
2023-04-03T04:26:01.664Z,75.33
2023-04-03T04:28:30.430Z,82.66
2023-04-03T04:30:58.852Z,87.08
2023-04-03T04:33:27.417Z,80.30
2023-04-03T04:35:55.715Z,79.42
2023-04-03T04:38:24.117Z,75.58
2023-04-03T04:40:53.704Z,74.06
2023-04-03T04:43:22.065Z,73.11
2023-04-03T04:45:50.498Z,75.22
2023-04-03T04:48:18.827Z,72.39
2023-04-03T04:50:47.194Z,71.18
2023-04-03T04:53:15.481Z,72.31
2023-04-03T04:55:44.041Z,71.54
2023-04-03T04:58:13.841Z,72.26
2023-04-03T05:00:42.152Z,74.05
2023-04-03T05:03:10.592Z,74.02
2023-04-03T05:05:39.426Z,74.34
2023-04-03T05:08:09.383Z,76.21
2023-04-03T05:10:37.630Z,75.14
2023-04-03T05:13:05.867Z,73.03
2023-04-03T05:15:35.792Z,73.07
2023-04-03T05:18:04.348Z,73.89
2023-04-03T05:20:32.815Z,71.63
2023-04-03T05:23:01.106Z,71.54
2023-04-03T05:25:29.522Z,71.05
2023-04-03T05:27:57.974Z,73.37
2023-04-03T05:30:26.623Z,74.21
2023-04-03T05:32:56.719Z,74.45
2023-04-03T05:35:25.098Z,74.06
2023-04-03T05:37:53.548Z,77.38
2023-04-03T05:40:22.165Z,77.47
2023-04-03T05:42:50.687Z,78.01
2023-04-03T05:45:19.137Z,78.11
2023-04-03T05:47:48.433Z,75.08
2023-04-03T05:50:18.312Z,76.15
2023-04-03T05:52:50.194Z,77.61
2023-04-03T05:55:18.843Z,76.31
2023-04-03T05:57:47.178Z,74.84
2023-04-03T06:00:17.626Z,75.14
2023-04-03T06:02:46.304Z,73.82
2023-04-03T06:05:16.644Z,74.10
2023-04-03T06:07:46.852Z,71.94
2023-04-03T06:10:15.434Z,71.45
2023-04-03T06:12:43.970Z,69.59
2023-04-03T06:15:12.921Z,68.22
2023-04-03T06:17:41.296Z,66.94
2023-04-03T06:20:10.543Z,67.71
2023-04-03T06:22:39.348Z,68.74
2023-04-03T06:25:10.507Z,69.40
2023-04-03T06:27:39.021Z,69.63
2023-04-03T06:30:08.782Z,70.05
2023-04-03T06:32:37.139Z,72.13
2023-04-03T06:35:06.255Z,71.47
2023-04-03T06:37:34.754Z,70.12
2023-04-03T06:40:04.127Z,70.50
2023-04-03T06:42:33.913Z,69.25
2023-04-03T06:45:02.853Z,69.35
2023-04-03T06:47:31.237Z,71.38
2023-04-03T06:49:59.712Z,71.70
2023-04-03T06:52:28.535Z,74.74
2023-04-03T06:54:58.754Z,71.96
2023-04-03T06:57:27.595Z,71.27
2023-04-03T06:59:57.660Z,71.81
2023-04-03T07:02:26.168Z,70.34
2023-04-03T07:04:54.560Z,70.68
2023-04-03T07:07:23.138Z,70.73
2023-04-03T07:09:51.475Z,69.96
2023-04-03T07:12:19.756Z,69.87
2023-04-03T07:14:48.112Z,68.29
2023-04-03T07:17:17.854Z,68.35
2023-04-03T07:19:46.137Z,68.16
2023-04-03T07:22:14.447Z,66.61
2023-04-03T07:24:42.773Z,65.43
2023-04-03T07:27:13.853Z,64.10
2023-04-03T07:29:42.241Z,67.30
2023-04-03T07:32:10.879Z,68.99
2023-04-03T07:34:41.197Z,68.93
2023-04-03T07:37:10.205Z,69.54
2023-04-03T07:39:38.704Z,70.57
2023-04-03T07:42:07.516Z,69.40
2023-04-03T07:44:36.630Z,68.97
2023-04-03T07:47:04.932Z,69.37
2023-04-03T07:49:34.118Z,71.69
2023-04-03T07:52:04.604Z,75.91
2023-04-03T07:54:32.874Z,78.28
2023-04-03T07:57:01.718Z,77.72
2023-04-03T07:59:30.719Z,78.29
2023-04-03T08:01:59.040Z,79.75
2023-04-03T08:04:28.197Z,80.28
2023-04-03T08:06:56.626Z,80.10
2023-04-03T08:09:26.299Z,79.98
2023-04-03T08:11:54.700Z,75.33
2023-04-03T08:14:23.551Z,75.19
2023-04-03T08:16:52.414Z,75.36
2023-04-03T08:19:26.045Z,74.13
2023-04-03T08:21:55.816Z,75.16
2023-04-03T08:24:25.574Z,76.98
2023-04-03T08:26:53.880Z,78.99
2023-04-03T08:29:22.372Z,79.95
2023-04-03T08:31:51.352Z,80.55
2023-04-03T08:34:20.287Z,76.79
2023-04-03T08:36:48.774Z,74.51
2023-04-03T08:39:17.062Z,76.73
2023-04-03T08:41:49.049Z,73.42
2023-04-03T08:44:23.719Z,75.84
2023-04-03T08:47:06.549Z,78.07
2023-04-03T08:49:38.458Z,85.76
2023-04-03T08:52:12.225Z,88.25
2023-04-03T08:54:51.101Z,86.04
2023-04-03T08:57:28.017Z,88.02
2023-04-03T08:59:56.802Z,90.40
2023-04-03T09:02:31.584Z,91.97
2023-04-03T09:04:59.889Z,89.79
2023-04-03T09:07:39.332Z,93.71
2023-04-03T09:10:08.943Z,95.41
2023-04-03T09:12:42.322Z,98.43
2023-04-03T09:15:27.855Z,100.00
2023-04-03T09:18:05.637Z,100.00
2023-04-03T09:20:45.309Z,99.24
2023-04-03T09:23:23.744Z,100.00
2023-04-03T09:25:55.532Z,100.00
2023-04-03T09:28:25.315Z,100.00
2023-04-03T09:30:54.182Z,100.00
2023-04-03T09:33:23.861Z,100.00
2023-04-03T09:35:53.499Z,100.00
2023-04-03T09:38:23.569Z,100.00
2023-04-03T09:40:53.886Z,100.00
2023-04-03T09:43:32.682Z,100.00
2023-04-03T09:46:20.828Z,100.00
2023-04-03T09:49:08.353Z,100.00
2023-04-03T09:51:38.231Z,100.00
2023-04-03T09:54:28.996Z,100.00
2023-04-03T09:56:59.976Z,100.00
2023-04-03T09:59:29.754Z,100.00
2023-04-03T10:02:04.419Z,100.00
2023-04-03T10:04:41.627Z,100.00
2023-04-03T10:07:33.550Z,100.00
2023-04-03T10:10:04.651Z,100.00
2023-04-03T10:12:33.070Z,100.00
2023-04-03T10:15:03.468Z,100.00
2023-04-03T10:17:52.385Z,100.00
2023-04-03T10:20:32.814Z,100.00
2023-04-03T10:23:14.090Z,100.00
2023-04-03T10:25:46.794Z,96.24
2023-04-03T10:28:24.287Z,100.00
2023-04-03T10:31:06.570Z,100.00
2023-04-03T10:33:48.435Z,100.00
2023-04-03T10:36:27.220Z,100.00
2023-04-03T10:39:04.773Z,100.00
2023-04-03T10:41:47.766Z,100.00
2023-04-03T10:44:23.975Z,100.00
2023-04-03T10:46:58.311Z,100.00
2023-04-03T10:49:57.072Z,100.00
2023-04-03T10:52:33.031Z,100.00
2023-04-03T10:55:09.941Z,100.00
2023-04-03T10:57:40.155Z,100.00
2023-04-03T11:00:18.106Z,100.00
2023-04-03T11:02:53.385Z,100.00
2023-04-03T11:05:33.692Z,100.00
2023-04-03T11:08:09.700Z,100.00
2023-04-03T11:10:43.539Z,100.00
2023-04-03T11:13:16.895Z,100.00
2023-04-03T11:15:46.329Z,100.00
2023-04-03T11:18:21.536Z,100.00
2023-04-03T11:20:59.977Z,100.00
2023-04-03T11:23:42.319Z,100.00
2023-04-03T11:26:19.748Z,100.00
2023-04-03T11:28:48.335Z,100.00
2023-04-03T11:31:39.154Z,100.00
2023-04-03T11:34:29.878Z,100.00
2023-04-03T11:37:01.983Z,100.00
2023-04-03T11:39:33.246Z,100.00
2023-04-03T11:42:17.622Z,100.00
2023-04-03T11:44:46.262Z,100.00
2023-04-03T11:47:35.239Z,100.00
2023-04-03T11:50:07.886Z,100.00
2023-04-03T11:52:58.837Z,100.00
2023-04-03T11:55:57.700Z,100.00
2023-04-03T11:58:28.320Z,100.00
2023-04-03T12:01:09.109Z,100.00
2023-04-03T12:04:10.187Z,100.00
2023-04-03T12:07:11.397Z,100.00
2023-04-03T12:10:28.727Z,100.00
2023-04-03T12:13:05.138Z,100.00
2023-04-03T12:15:55.238Z,100.00
2023-04-03T12:18:57.773Z,100.00
2023-04-03T12:21:47.497Z,100.00
2023-04-03T12:24:30.240Z,100.00
2023-04-03T12:27:24.139Z,100.00
2023-04-03T12:29:58.386Z,100.00
2023-04-03T12:32:43.973Z,100.00
2023-04-03T12:35:22.741Z,100.00
2023-04-03T12:38:31.957Z,100.00
2023-04-03T12:41:14.111Z,100.00
2023-04-03T12:43:56.985Z,100.00
2023-04-03T12:46:28.816Z,100.00
2023-04-03T12:48:59.324Z,100.00
2023-04-03T12:51:36.613Z,100.00
2023-04-03T12:54:14.185Z,100.00
2023-04-03T12:56:42.752Z,100.00
2023-04-03T12:59:21.406Z,100.00
2023-04-03T13:01:56.381Z,100.00
2023-04-03T13:04:25.227Z,100.00
2023-04-03T13:06:53.818Z,100.00
2023-04-03T13:09:24.782Z,100.00
2023-04-03T13:11:58.238Z,100.00
2023-04-03T13:14:30.194Z,100.00
2023-04-03T13:16:59.966Z,100.00
2023-04-03T13:19:30.433Z,100.00
2023-04-03T13:22:03.963Z,100.00
2023-04-03T13:24:35.243Z,100.00
2023-04-03T13:27:04.389Z,100.00
2023-04-03T13:29:36.471Z,100.00
2023-04-03T13:32:08.448Z,100.00
2023-04-03T13:34:40.783Z,100.00
2023-04-03T13:37:09.703Z,100.00
2023-04-03T13:39:40.306Z,100.00
2023-04-03T13:42:25.053Z,100.00
2023-04-03T13:45:21.289Z,100.00
2023-04-03T13:47:51.561Z,100.00
2023-04-03T13:50:23.529Z,100.00
2023-04-03T13:52:55.154Z,100.00
2023-04-03T13:55:27.052Z,100.00
2023-04-03T13:57:58.887Z,100.00
2023-04-03T14:00:36.302Z,100.00
2023-04-03T14:03:04.876Z,100.00
2023-04-03T14:05:33.232Z,100.00
2023-04-03T14:08:03.124Z,100.00
2023-04-03T14:10:32.855Z,100.00
2023-04-03T14:13:01.337Z,100.00
2023-04-03T14:15:33.285Z,100.00
2023-04-03T14:18:03.867Z,100.00
2023-04-03T14:20:33.405Z,100.00
2023-04-03T14:23:01.720Z,100.00
2023-04-03T14:25:30.218Z,100.00
2023-04-03T14:27:59.007Z,100.00
2023-04-03T14:30:30.231Z,100.00
2023-04-03T14:33:00.467Z,100.00
2023-04-03T14:35:29.299Z,100.00
2023-04-03T14:37:58.065Z,100.00
2023-04-03T14:40:29.013Z,100.00
2023-04-03T14:42:58.536Z,100.00
2023-04-03T14:45:27.466Z,100.00
2023-04-03T14:47:58.464Z,100.00
2023-04-03T14:50:29.525Z,100.00
2023-04-03T14:52:59.969Z,100.00
2023-04-03T14:55:28.838Z,100.00
2023-04-03T14:57:57.321Z,100.00
2023-04-03T15:00:25.787Z,100.00
2023-04-03T15:02:54.515Z,100.00
2023-04-03T15:05:22.946Z,100.00
2023-04-03T15:07:56.227Z,100.00
2023-04-03T15:10:27.376Z,100.00
2023-04-03T15:12:56.741Z,100.00
2023-04-03T15:15:26.877Z,100.00
2023-04-03T15:17:59.101Z,100.00
2023-04-03T15:20:29.074Z,100.00
2023-04-03T15:23:01.819Z,100.00
2023-04-03T15:25:30.922Z,100.00
2023-04-03T15:27:59.995Z,100.00
2023-04-03T15:30:28.314Z,100.00
2023-04-03T15:32:56.794Z,100.00
2023-04-03T15:35:26.617Z,100.00
2023-04-03T15:37:54.943Z,100.00
2023-04-03T15:40:24.652Z,100.00
2023-04-03T15:42:53.888Z,100.00
2023-04-03T15:45:23.432Z,100.00
2023-04-03T15:47:52.078Z,100.00
2023-04-03T15:50:23.352Z,100.00
2023-04-03T15:52:57.738Z,100.00
2023-04-03T15:55:28.853Z,100.00
2023-04-03T15:57:57.516Z,100.00
2023-04-03T16:00:26.700Z,100.00
2023-04-03T16:02:58.638Z,100.00
2023-04-03T16:05:27.794Z,100.00
2023-04-03T16:07:56.448Z,100.00
2023-04-03T16:10:25.165Z,100.00
2023-04-03T16:12:54.863Z,100.00
2023-04-03T16:15:23.258Z,100.00
2023-04-03T16:17:51.644Z,100.00
2023-04-03T16:20:22.660Z,100.00
2023-04-03T16:22:51.545Z,100.00
2023-04-03T16:25:20.336Z,100.00
2023-04-03T16:27:48.751Z,100.00
2023-04-03T16:30:18.657Z,100.00
2023-04-03T16:32:47.557Z,100.00
2023-04-03T16:35:15.915Z,100.00
2023-04-03T16:37:44.315Z,100.00
2023-04-03T16:40:13.685Z,100.00
2023-04-03T16:42:42.171Z,100.00
2023-04-03T16:45:11.232Z,100.00
2023-04-03T16:47:41.029Z,100.00
2023-04-03T16:50:10.517Z,100.00
2023-04-03T16:52:39.508Z,100.00
2023-04-03T16:55:08.563Z,100.00
2023-04-03T16:57:36.915Z,100.00
2023-04-03T17:00:06.596Z,100.00
2023-04-03T17:02:35.309Z,100.00
2023-04-03T17:05:05.492Z,100.00
2023-04-03T17:07:33.851Z,100.00
2023-04-03T17:10:02.263Z,100.00
2023-04-03T17:12:30.772Z,100.00
2023-04-03T17:14:59.000Z,100.00
2023-04-03T17:17:28.300Z,100.00
2023-04-03T17:19:57.183Z,100.00
2023-04-03T17:22:27.158Z,100.00
2023-04-03T17:24:55.614Z,100.00
2023-04-03T17:27:23.914Z,100.00
2023-04-03T17:29:52.660Z,100.00
2023-04-03T17:32:21.147Z,100.00
2023-04-03T17:34:49.691Z,100.00
2023-04-03T17:37:18.001Z,100.00
2023-04-03T17:39:48.174Z,100.00
2023-04-03T17:42:16.466Z,100.00
2023-04-03T17:44:44.881Z,100.00
2023-04-03T17:47:13.208Z,100.00
2023-04-03T17:49:41.613Z,100.00
2023-04-03T17:52:09.962Z,100.00
2023-04-03T17:54:38.209Z,100.00
2023-04-03T17:57:09.007Z,100.00
2023-04-03T17:59:37.430Z,100.00
2023-04-03T18:02:05.820Z,100.00
2023-04-03T18:04:34.230Z,100.00
2023-04-03T18:07:04.151Z,100.00
2023-04-03T18:09:35.113Z,100.00
2023-04-03T18:12:06.083Z,100.00
2023-04-03T18:14:38.592Z,100.00
2023-04-03T18:17:07.233Z,100.00
2023-04-03T18:19:36.857Z,100.00
2023-04-03T18:22:09.929Z,100.00
2023-04-03T18:24:38.442Z,100.00
2023-04-03T18:27:11.025Z,100.00
2023-04-03T18:29:43.452Z,100.00
2023-04-03T18:32:14.455Z,100.00
2023-04-03T18:34:43.018Z,100.00
2023-04-03T18:37:11.472Z,100.00
2023-04-03T18:39:39.980Z,100.00
2023-04-03T18:42:11.249Z,100.00
2023-04-03T18:44:42.380Z,100.00
2023-04-03T18:47:10.749Z,100.00
2023-04-03T18:49:41.756Z,100.00
2023-04-03T18:52:11.663Z,100.00
2023-04-03T18:54:41.077Z,100.00
2023-04-03T18:57:09.470Z,100.00
2023-04-03T18:59:38.009Z,100.00
2023-04-03T19:02:09.399Z,100.00
2023-04-03T19:04:38.080Z,100.00
2023-04-03T19:07:06.781Z,100.00
2023-04-03T19:09:35.698Z,100.00
2023-04-03T19:12:04.002Z,100.00
2023-04-03T19:14:32.527Z,100.00
2023-04-03T19:17:02.601Z,100.00
2023-04-03T19:19:32.301Z,100.00
2023-04-03T19:22:00.645Z,100.00
2023-04-03T19:24:28.929Z,100.00
2023-04-03T19:26:57.419Z,100.00
2023-04-03T19:29:25.757Z,100.00
2023-04-03T19:31:54.060Z,100.00
2023-04-03T19:34:22.433Z,100.00
2023-04-03T19:36:53.059Z,100.00
2023-04-03T19:39:21.483Z,100.00
2023-04-03T19:41:50.035Z,100.00
2023-04-03T19:44:18.409Z,100.00
2023-04-03T19:46:51.213Z,100.00
2023-04-03T19:49:20.827Z,100.00
2023-04-03T19:51:49.190Z,100.00
2023-04-03T19:54:19.104Z,100.00
2023-04-03T19:56:47.520Z,100.00
2023-04-03T19:59:16.493Z,100.00
2023-04-03T20:01:46.439Z,100.00
2023-04-03T20:04:14.867Z,100.00
2023-04-03T20:06:43.209Z,100.00
2023-04-03T20:09:11.642Z,100.00
2023-04-03T20:11:41.559Z,100.00
2023-04-03T20:14:09.925Z,100.00
2023-04-03T20:16:38.193Z,100.00
2023-04-03T20:19:06.585Z,100.00
2023-04-03T20:21:35.726Z,100.00
2023-04-03T20:24:06.703Z,100.00
2023-04-03T20:26:37.543Z,100.00
2023-04-03T20:29:07.229Z,100.00
2023-04-03T20:31:36.105Z,100.00
2023-04-03T20:34:04.451Z,100.00
2023-04-03T20:36:33.468Z,100.00
2023-04-03T20:39:01.905Z,100.00
2023-04-03T20:41:32.028Z,100.00
2023-04-03T20:44:00.501Z,100.00
2023-04-03T20:46:42.164Z,100.00
2023-04-03T20:49:18.483Z,100.00
2023-04-03T20:51:46.816Z,100.00
2023-04-03T20:54:15.139Z,100.00
2023-04-03T20:56:44.441Z,100.00
2023-04-03T20:59:14.291Z,100.00
2023-04-03T21:01:44.572Z,100.00
2023-04-03T21:04:17.443Z,100.00
2023-04-03T21:07:22.913Z,100.00
2023-04-03T21:10:28.645Z,100.00
2023-04-03T21:13:34.192Z,100.00
2023-04-03T21:16:03.076Z,100.00
2023-04-03T21:19:00.977Z,100.00
2023-04-03T21:21:29.628Z,100.00
2023-04-03T21:23:58.050Z,100.00
2023-04-03T21:26:28.549Z,100.00
2023-04-03T21:28:57.204Z,100.00
2023-04-03T21:31:26.348Z,100.00
2023-04-03T21:33:56.002Z,100.00
2023-04-03T21:36:24.377Z,100.00
2023-04-03T21:38:52.773Z,100.00
2023-04-03T21:41:21.765Z,100.00
2023-04-03T21:43:50.103Z,100.00
2023-04-03T21:46:20.419Z,100.00
2023-04-03T21:48:48.910Z,100.00
2023-04-03T21:51:18.831Z,100.00
2023-04-03T21:53:47.553Z,100.00
2023-04-03T21:56:15.881Z,100.00
2023-04-03T21:58:44.355Z,100.00
2023-04-03T22:01:13.764Z,100.00
2023-04-03T22:03:43.023Z,100.00
2023-04-03T22:06:12.116Z,100.00
2023-04-03T22:08:42.239Z,100.00
2023-04-03T22:11:12.983Z,100.00
2023-04-03T22:13:42.032Z,100.00
2023-04-03T22:16:12.200Z,100.00
2023-04-03T22:18:40.870Z,100.00
2023-04-03T22:21:09.539Z,100.00
2023-04-03T22:23:37.924Z,100.00
2023-04-03T22:26:08.843Z,100.00
2023-04-03T22:28:39.475Z,100.00
2023-04-03T22:31:08.860Z,100.00
2023-04-03T22:33:37.699Z,100.00
2023-04-03T22:36:07.294Z,100.00
2023-04-03T22:38:36.910Z,100.00
2023-04-03T22:41:07.990Z,100.00
2023-04-03T22:43:37.608Z,100.00
2023-04-03T22:46:08.560Z,100.00
2023-04-03T22:48:37.459Z,100.00
2023-04-03T22:51:07.716Z,100.00
2023-04-03T22:53:53.781Z,100.00
2023-04-03T22:56:26.001Z,100.00
2023-04-03T22:58:54.677Z,100.00
2023-04-03T23:01:24.282Z,100.00
2023-04-03T23:03:52.774Z,100.00
2023-04-03T23:06:21.099Z,100.00
2023-04-03T23:08:49.769Z,100.00
2023-04-03T23:11:18.048Z,100.00
2023-04-03T23:13:47.684Z,100.00
2023-04-03T23:16:15.966Z,100.00
2023-04-03T23:18:44.194Z,100.00
2023-04-03T23:21:12.576Z,100.00
2023-04-03T23:23:40.809Z,100.00
2023-04-03T23:26:09.891Z,100.00
2023-04-03T23:28:38.086Z,100.00
2023-04-03T23:31:08.279Z,100.00
2023-04-03T23:33:38.159Z,100.00
2023-04-03T23:36:09.949Z,100.00
2023-04-03T23:38:38.713Z,100.00
2023-04-03T23:41:07.416Z,100.00
2023-04-03T23:43:35.787Z,100.00
2023-04-03T23:46:04.161Z,100.00
2023-04-03T23:48:33.868Z,100.00
2023-04-03T23:51:02.179Z,100.00
2023-04-03T23:53:30.502Z,100.00
2023-04-03T23:55:58.822Z,100.00
2023-04-03T23:58:27.117Z,100.00
